Time;durP1;ratioP1;P1;durP2;ratioP2;P2;SDS_P1;SDS_P2;PMS_P1;PMS_P2;Temp;Humidity;BMP_temperature;BMP_pressure;BME280_temperature;BME280_humidity;BME280_pressure;Samples;Min_cycle;Max_cycle;Signal;HPM_P1;HPM_P2
2021/05/14 00:00:43;;;;;;;15.27;5.13;;;10.80;99.90;;;;;;5076468;28;20029;-88
2021/05/14 00:03:08;;;;;;;7.70;4.97;;;10.70;99.90;;;;;;5054415;28;20482;-89
2021/05/14 00:05:35;;;;;;;8.45;4.95;;;9.60;99.90;;;;;;5056776;28;20055;-88
2021/05/14 00:08:05;;;;;;;8.35;4.30;;;13.80;99.90;;;;;;5057865;28;20016;-89
2021/05/14 00:10:35;;;;;;;7.07;4.20;;;10.80;99.90;;;;;;5067191;28;20039;-88
2021/05/14 00:13:01;;;;;;;8.88;4.28;;;10.60;99.90;;;;;;5075144;28;20020;-88
2021/05/14 00:15:26;;;;;;;11.00;4.35;;;10.80;99.90;;;;;;5057991;28;20031;-88
2021/05/14 00:17:52;;;;;;;8.93;4.47;;;10.70;99.90;;;;;;5046408;28;20029;-88
2021/05/14 00:20:18;;;;;;;8.00;4.15;;;10.70;99.90;;;;;;5057410;28;20074;-88
2021/05/14 00:22:44;;;;;;;18.23;5.70;;;12.30;99.90;;;;;;5076257;28;20017;-89
2021/05/14 00:25:10;;;;;;;10.45;5.25;;;10.60;99.90;;;;;;5058219;28;20029;-89
2021/05/14 00:27:36;;;;;;;11.20;5.13;;;10.60;99.90;;;;;;5057546;28;20446;-89
2021/05/14 00:30:03;;;;;;;8.30;4.70;;;10.50;99.90;;;;;;5074707;28;20078;-89
2021/05/14 00:32:29;;;;;;;14.35;5.63;;;10.50;99.90;;;;;;5038011;28;20014;-89
2021/05/14 00:34:54;;;;;;;8.07;5.30;;;10.50;99.90;;;;;;5055171;28;20440;-89
2021/05/14 00:37:20;;;;;;;12.80;5.90;;;10.50;99.90;;;;;;5049068;28;20048;-89
2021/05/14 00:39:46;;;;;;;13.73;5.53;;;10.30;99.90;;;;;;5056842;28;20021;-89
2021/05/14 00:42:12;;;;;;;13.82;5.63;;;10.40;99.90;;;;;;5066423;28;20025;-89
2021/05/14 00:44:45;;;;;;;8.65;4.80;;;10.40;99.90;;;;;;5057475;28;20501;-89
2021/05/14 00:47:13;;;;;;;12.80;6.22;;;10.40;99.90;;;;;;5051057;28;20119;-88
2021/05/14 00:49:40;;;;;;;13.27;5.70;;;9.90;99.90;;;;;;5037853;28;20056;-89
2021/05/14 00:52:08;;;;;;;8.10;5.30;;;10.30;99.90;;;;;;5042522;28;20032;-89
2021/05/14 00:54:35;;;;;;;13.93;6.93;;;10.30;99.90;;;;;;5050197;28;20024;-90
2021/05/14 00:57:01;;;;;;;11.45;5.28;;;10.30;99.90;;;;;;5042631;28;20028;-90
2021/05/14 00:59:27;;;;;;;13.45;6.22;;;10.30;99.90;;;;;;5053859;28;20112;-89
2021/05/14 01:01:53;;;;;;;13.38;6.47;;;10.30;99.90;;;;;;5037660;28;20036;-88
2021/05/14 01:04:18;;;;;;;10.13;5.85;;;10.30;99.90;;;;;;5046177;28;20028;-89
2021/05/14 01:06:44;;;;;;;12.13;6.40;;;10.30;99.90;;;;;;5039570;28;20033;-89
2021/05/14 01:09:10;;;;;;;11.65;6.28;;;10.20;99.90;;;;;;5037158;28;20033;-88
2021/05/14 01:11:36;;;;;;;13.05;6.00;;;10.30;99.90;;;;;;5037155;28;20024;-88
2021/05/14 01:14:02;;;;;;;11.52;6.40;;;10.20;99.90;;;;;;5060404;28;20033;-89
2021/05/14 01:16:27;;;;;;;13.75;6.47;;;10.20;99.90;;;;;;5046665;28;20036;-89
2021/05/14 01:18:54;;;;;;;10.77;6.30;;;10.20;99.90;;;;;;5054846;28;20068;-89
2021/05/14 01:21:21;;;;;;;12.10;6.88;;;10.20;99.90;;;;;;5036787;28;20481;-89
2021/05/14 01:23:47;;;;;;;12.90;6.15;;;10.20;99.90;;;;;;5049881;28;20020;-90
2021/05/14 01:26:15;;;;;;;10.35;6.03;;;10.20;99.90;;;;;;5073300;28;20065;-88
2021/05/14 01:28:40;;;;;;;11.52;6.15;;;10.20;99.90;;;;;;5056522;28;20123;-88
2021/05/14 01:31:07;;;;;;;14.85;6.57;;;12.60;99.90;;;;;;5048488;28;20186;-88
2021/05/14 01:33:32;;;;;;;13.02;6.75;;;10.20;99.90;;;;;;5036770;28;20117;-89
2021/05/14 01:35:59;;;;;;;19.08;7.82;;;10.20;99.90;;;;;;5039904;28;20051;-90
2021/05/14 01:38:25;;;;;;;12.88;6.82;;;10.10;99.90;;;;;;5056778;28;20028;-88
2021/05/14 01:40:51;;;;;;;13.55;6.03;;;10.10;99.90;;;;;;5087209;28;20108;-88
2021/05/14 01:43:17;;;;;;;10.23;5.72;;;13.50;99.90;;;;;;5056531;28;20044;-89
2021/05/14 01:45:42;;;;;;;10.23;6.30;;;9.30;99.90;;;;;;5064840;28;20017;-88
2021/05/14 01:48:08;;;;;;;13.30;6.75;;;9.90;99.90;;;;;;5051290;28;20053;-89
2021/05/14 01:50:34;;;;;;;9.10;5.93;;;9.80;99.90;;;;;;5036702;28;20536;-89
2021/05/14 01:53:00;;;;;;;10.68;6.10;;;10.00;99.90;;;;;;5059418;28;20035;-90
2021/05/14 01:55:25;;;;;;;11.98;6.93;;;10.00;99.90;;;;;;5074765;28;20036;-89
2021/05/14 01:57:51;;;;;;;11.18;5.38;;;10.00;99.90;;;;;;5051846;28;20029;-88
2021/05/14 02:00:17;;;;;;;12.82;7.13;;;10.00;99.90;;;;;;5046354;28;20062;-89
2021/05/14 02:02:43;;;;;;;13.10;6.47;;;10.00;99.90;;;;;;5055454;28;20021;-88
2021/05/14 02:05:09;;;;;;;11.43;6.50;;;9.90;99.90;;;;;;5057173;28;20044;-89
2021/05/14 02:07:34;;;;;;;13.52;5.97;;;9.90;99.90;;;;;;5036319;28;20033;-90
2021/05/14 02:10:00;;;;;;;11.35;5.97;;;9.90;99.90;;;;;;5050555;28;20032;-90
2021/05/14 02:12:26;;;;;;;11.15;5.70;;;9.90;99.90;;;;;;5070775;28;20017;-89
2021/05/14 02:14:51;;;;;;;11.77;6.78;;;9.90;99.90;;;;;;5054209;28;20017;-90
2021/05/14 02:17:17;;;;;;;14.98;6.65;;;9.90;99.90;;;;;;5054341;28;20355;-89
2021/05/14 02:19:43;;;;;;;10.60;5.97;;;9.80;99.90;;;;;;5042393;28;20035;-88
2021/05/14 02:22:08;;;;;;;10.43;6.05;;;9.80;99.90;;;;;;5073582;28;20103;-89
2021/05/14 02:24:34;;;;;;;14.02;6.70;;;9.80;99.90;;;;;;5044125;28;20024;-90
2021/05/14 02:26:59;;;;;;;13.55;6.60;;;9.80;99.90;;;;;;5059100;28;20031;-90
2021/05/14 02:29:25;;;;;;;14.07;7.07;;;9.80;99.90;;;;;;5043405;28;20031;-90
2021/05/14 02:31:51;;;;;;;11.50;5.82;;;9.80;99.90;;;;;;5054830;28;20444;-90
2021/05/14 02:34:16;;;;;;;13.63;7.03;;;9.80;99.90;;;;;;5042397;28;20032;-90
2021/05/14 02:36:42;;;;;;;18.60;8.00;;;9.80;99.90;;;;;;5073959;28;20111;-89
2021/05/14 02:39:09;;;;;;;14.23;7.60;;;9.80;99.90;;;;;;5044983;28;20477;-90
2021/05/14 02:41:36;;;;;;;15.98;7.50;;;9.70;99.90;;;;;;5077427;28;20119;-89
2021/05/14 02:44:03;;;;;;;14.73;7.15;;;9.80;99.90;;;;;;5077530;28;20433;-88
2021/05/14 02:46:29;;;;;;;19.58;8.05;;;9.70;99.90;;;;;;5048485;28;20544;-89
2021/05/14 02:48:55;;;;;;;18.95;7.25;;;9.70;99.90;;;;;;5040786;28;20112;-89
2021/05/14 02:51:20;;;;;;;13.60;7.65;;;9.70;99.90;;;;;;5040045;28;20034;-90
2021/05/14 02:53:46;;;;;;;16.40;8.43;;;9.70;99.90;;;;;;5065203;28;20032;-90
2021/05/14 02:56:11;;;;;;;17.65;7.80;;;9.50;99.90;;;;;;5058142;28;20056;-89
2021/05/14 02:58:37;;;;;;;15.35;7.70;;;9.60;99.90;;;;;;5076497;28;20070;-89
2021/05/14 03:01:03;;;;;;;14.02;7.10;;;12.60;99.90;;;;;;5059299;28;20036;-89
2021/05/14 03:03:28;;;;;;;14.05;7.68;;;9.70;99.90;;;;;;5059511;28;20081;-90
2021/05/14 03:05:54;;;;;;;14.98;7.57;;;9.60;99.90;;;;;;5058318;28;20078;-90
2021/05/14 03:08:19;;;;;;;12.68;6.93;;;9.70;99.90;;;;;;5059414;28;20550;-89
2021/05/14 03:10:45;;;;;;;17.60;8.00;;;9.70;99.90;;;;;;5046127;28;20570;-89
2021/05/14 03:13:10;;;;;;;18.92;8.23;;;9.60;99.90;;;;;;5041574;28;21270;-90
2021/05/14 03:15:36;;;;;;;16.08;8.10;;;9.60;99.90;;;;;;5052874;28;20482;-90
2021/05/14 03:18:01;;;;;;;17.00;8.15;;;9.60;99.90;;;;;;5039363;28;20056;-90
2021/05/14 03:20:27;;;;;;;17.52;7.57;;;9.60;99.90;;;;;;5039427;28;20083;-89
2021/05/14 03:22:52;;;;;;;17.60;8.45;;;9.50;99.90;;;;;;5039366;28;20446;-89
2021/05/14 03:25:18;;;;;;;17.50;8.75;;;9.40;99.90;;;;;;5040807;28;20083;-89
2021/05/14 03:27:44;;;;;;;22.55;8.43;;;12.30;99.90;;;;;;5053794;28;20111;-90
2021/05/14 03:30:10;;;;;;;19.80;8.23;;;9.50;99.90;;;;;;5075185;28;20473;-88
2021/05/14 03:32:36;;;;;;;17.15;7.95;;;9.50;99.90;;;;;;5059059;28;20021;-88
2021/05/14 03:35:03;;;;;;;15.55;8.02;;;9.50;99.90;;;;;;5076975;28;20013;-89
2021/05/14 03:37:28;;;;;;;23.50;8.32;;;9.50;99.90;;;;;;5076184;28;20030;-89
2021/05/14 03:39:56;;;;;;;17.92;8.13;;;9.50;99.90;;;;;;5058239;28;20020;-90
2021/05/14 03:42:25;;;;;;;20.52;8.90;;;9.60;99.90;;;;;;5054855;28;20020;-89
2021/05/14 03:44:54;;;;;;;19.50;7.88;;;9.50;99.90;;;;;;5075697;28;20111;-89
2021/05/14 03:47:23;;;;;;;21.58;8.90;;;9.50;99.90;;;;;;5061868;28;20474;-88
2021/05/14 03:49:48;;;;;;;18.33;8.63;;;9.60;99.90;;;;;;5056459;28;20028;-89
2021/05/14 03:52:14;;;;;;;18.05;8.57;;;9.40;99.90;;;;;;5038797;28;20167;-89
2021/05/14 03:54:41;;;;;;;19.65;8.38;;;9.40;99.90;;;;;;5038709;28;20021;-89
2021/05/14 03:57:07;;;;;;;17.88;7.78;;;9.30;99.90;;;;;;5073864;28;20020;-89
2021/05/14 03:59:33;;;;;;;18.05;9.70;;;9.60;99.90;;;;;;5076190;28;20028;-89
2021/05/14 04:02:00;;;;;;;19.77;9.77;;;9.80;99.90;;;;;;5050039;28;20500;-88
2021/05/14 04:04:26;;;;;;;23.30;9.93;;;9.60;99.90;;;;;;5042235;28;20432;-89
2021/05/14 04:06:52;;;;;;;21.92;9.82;;;9.60;99.90;;;;;;5040556;28;20013;-88
2021/05/14 04:09:25;;;;;;;21.08;9.23;;;9.60;99.90;;;;;;5048170;28;20443;-88
2021/05/14 04:12:10;;;;;;;20.95;9.18;;;9.70;99.90;;;;;;5052714;28;20036;-87
2021/05/14 04:14:35;;;;;;;23.02;8.32;;;9.70;99.90;;;;;;5038450;28;20025;-88
2021/05/14 04:17:03;;;;;;;16.88;8.63;;;11.80;99.90;;;;;;5052668;28;20024;-89
2021/05/14 04:19:29;;;;;;;19.05;8.73;;;9.70;99.90;;;;;;5057752;28;20024;-89
2021/05/14 04:21:57;;;;;;;20.17;9.00;;;9.70;99.90;;;;;;5076422;28;20097;-88
2021/05/14 04:24:24;;;;;;;27.95;9.68;;;9.80;99.90;;;;;;5087258;28;20027;-89
2021/05/14 04:26:50;;;;;;;22.10;9.30;;;9.80;99.90;;;;;;5038582;28;20450;-89
2021/05/14 04:29:17;;;;;;;22.85;9.13;;;9.80;99.90;;;;;;5055730;28;20067;-88
2021/05/14 04:31:43;;;;;;;23.80;9.32;;;9.80;99.90;;;;;;5055935;28;20038;-88
2021/05/14 04:34:10;;;;;;;20.42;8.65;;;9.80;99.90;;;;;;5038035;28;20032;-89
2021/05/14 04:36:35;;;;;;;23.35;8.75;;;9.70;99.90;;;;;;5037903;28;20025;-88
2021/05/14 04:39:01;;;;;;;23.58;9.75;;;9.70;99.90;;;;;;5038677;28;20517;-90
2021/05/14 04:41:26;;;;;;;22.83;9.85;;;9.70;99.90;;;;;;5061844;28;20028;-89
2021/05/14 04:43:52;;;;;;;16.80;8.68;;;9.70;99.90;;;;;;5063721;28;20029;-88
2021/05/14 04:46:18;;;;;;;21.23;10.13;;;9.70;99.90;;;;;;5037523;28;20025;-88
2021/05/14 04:48:43;;;;;;;21.00;8.52;;;9.60;99.90;;;;;;5055677;28;20032;-89
2021/05/14 04:51:09;;;;;;;23.63;9.15;;;9.70;99.90;;;;;;5037661;28;20060;-88
2021/05/14 04:53:38;;;;;;;19.40;8.52;;;9.70;99.90;;;;;;5056772;28;20037;-89
2021/05/14 04:56:04;;;;;;;18.20;8.25;;;9.70;99.90;;;;;;5037346;28;20082;-88
2021/05/14 04:58:30;;;;;;;19.00;9.07;;;9.70;99.90;;;;;;5046859;28;20033;-89
2021/05/14 05:00:56;;;;;;;20.38;8.38;;;12.00;99.90;;;;;;5038833;28;20064;-88
2021/05/14 05:03:22;;;;;;;15.98;8.60;;;12.20;99.90;;;;;;5055775;28;20062;-88
2021/05/14 05:05:48;;;;;;;19.50;9.38;;;9.60;99.90;;;;;;5074829;28;20028;-88
2021/05/14 05:10:48;;;;;;;26.40;9.38;;;9.80;99.90;;;;;;5056978;28;20053;-88
2021/05/14 05:13:15;;;;;;;17.13;8.32;;;8.90;99.90;;;;;;5024055;28;20466;-88
2021/05/14 05:15:41;;;;;;;18.98;8.60;;;9.60;99.90;;;;;;5033516;28;20040;-88
2021/05/14 05:18:07;;;;;;;14.65;8.10;;;9.70;99.90;;;;;;5059818;28;20028;-88
2021/05/14 05:20:32;;;;;;;15.50;7.95;;;9.60;99.90;;;;;;5058645;28;20474;-89
2021/05/14 05:23:01;;;;;;;17.90;8.85;;;9.70;99.90;;;;;;5041501;28;20029;-89
2021/05/14 05:25:26;;;;;;;19.25;8.95;;;9.90;99.90;;;;;;5040189;28;20028;-88
2021/05/14 05:27:52;;;;;;;15.73;8.10;;;9.90;99.90;;;;;;5021773;28;20482;-89
2021/05/14 05:30:19;;;;;;;17.65;8.90;;;9.80;99.90;;;;;;5021746;28;20451;-88
2021/05/14 05:32:45;;;;;;;19.55;8.35;;;10.00;99.90;;;;;;5021088;28;20014;-89
2021/05/14 05:35:11;;;;;;;17.27;8.68;;;9.80;99.90;;;;;;5021704;28;20036;-89
2021/05/14 05:37:36;;;;;;;13.48;7.03;;;10.00;99.90;;;;;;5022038;28;20025;-87
2021/05/14 05:40:04;;;;;;;16.73;8.07;;;10.00;99.90;;;;;;5022260;28;20060;-88
2021/05/14 05:42:30;;;;;;;19.65;7.63;;;10.00;99.90;;;;;;5020482;28;20037;-89
2021/05/14 05:44:56;;;;;;;21.20;8.00;;;9.80;99.90;;;;;;5019794;28;20025;-89
2021/05/14 05:47:21;;;;;;;15.48;7.85;;;9.90;99.90;;;;;;5039405;28;20052;-88
2021/05/14 05:49:47;;;;;;;14.05;7.25;;;9.80;99.90;;;;;;5021274;28;20014;-87
2021/05/14 05:52:13;;;;;;;15.13;8.02;;;10.10;99.90;;;;;;5022057;28;20021;-89
2021/05/14 05:54:38;;;;;;;11.77;7.00;;;10.10;99.90;;;;;;5022320;28;20025;-89
2021/05/14 05:57:04;;;;;;;13.65;7.57;;;10.90;99.90;;;;;;5022117;28;20496;-88
2021/05/14 05:59:30;;;;;;;13.57;7.57;;;10.10;99.90;;;;;;5040268;28;20026;-89
2021/05/14 06:01:56;;;;;;;14.60;6.85;;;10.10;99.90;;;;;;5021261;28;20113;-89
2021/05/14 06:04:21;;;;;;;14.23;8.48;;;10.00;99.90;;;;;;5022030;28;20470;-89
2021/05/14 06:06:47;;;;;;;15.18;8.05;;;10.10;99.90;;;;;;5020498;28;20045;-89
2021/05/14 06:09:14;;;;;;;16.30;8.07;;;11.10;99.90;;;;;;5020644;28;20097;-89
2021/05/14 06:11:39;;;;;;;13.48;7.90;;;10.20;99.90;;;;;;5020716;28;20025;-89
2021/05/14 06:14:05;;;;;;;17.13;8.35;;;;;;;;;;5037784;28;20017;-89
2021/05/14 06:16:32;;;;;;;17.02;8.15;;;10.20;99.90;;;;;;5037622;28;20021;-90
2021/05/14 06:19:11;;;;;;;17.95;9.23;;;9.90;99.90;;;;;;5042276;28;20025;-89
2021/05/14 06:21:44;;;;;;;16.48;8.30;;;10.30;99.90;;;;;;5022066;28;20021;-89
2021/05/14 06:24:10;;;;;;;15.98;7.90;;;10.30;99.90;;;;;;5024255;28;20029;-88
2021/05/14 06:26:35;;;;;;;13.90;7.80;;;10.40;99.90;;;;;;5025383;28;20025;-88
2021/05/14 06:29:01;;;;;;;18.38;8.40;;;10.40;99.90;;;;;;5032096;28;20033;-88
2021/05/14 06:31:26;;;;;;;14.82;7.80;;;13.10;99.90;;;;;;5042705;28;20083;-87
2021/05/14 06:33:52;;;;;;;15.52;8.85;;;10.30;99.90;;;;;;5042976;28;20029;-88
2021/05/14 06:36:17;;;;;;;15.90;8.25;;;10.50;99.90;;;;;;5042100;28;20402;-88
2021/05/14 06:38:43;;;;;;;16.25;8.30;;;10.70;99.90;;;;;;5040867;28;20021;-88
2021/05/14 06:41:09;;;;;;;20.33;9.40;;;10.70;99.90;;;;;;5041239;28;20029;-88
2021/05/14 06:43:34;;;;;;;14.82;7.43;;;13.30;99.90;;;;;;5039294;28;20355;-88
2021/05/14 06:46:01;;;;;;;18.60;7.85;;;10.40;99.90;;;;;;5034285;28;20014;-88
2021/05/14 06:48:27;;;;;;;19.08;8.65;;;10.60;99.90;;;;;;5021019;28;20067;-88
2021/05/14 06:50:53;;;;;;;14.68;7.47;;;;;;;;;;5022052;28;20025;-89
2021/05/14 06:53:19;;;;;;;11.43;7.38;;;10.90;99.90;;;;;;5022284;28;20029;-88
2021/05/14 06:55:46;;;;;;;12.82;7.30;;;;;;;;;;5021172;28;20027;-88
2021/05/14 06:58:13;;;;;;;14.27;7.82;;;10.90;99.90;;;;;;5020645;28;20174;-87
2021/05/14 07:00:39;;;;;;;15.77;7.85;;;14.60;99.90;;;;;;5038364;28;20059;-88
2021/05/14 07:03:05;;;;;;;15.45;7.25;;;10.70;99.90;;;;;;5024290;28;20116;-89
2021/05/14 07:05:30;;;;;;;15.45;7.68;;;14.50;99.90;;;;;;5040281;28;20074;-89
2021/05/14 07:07:56;;;;;;;15.68;7.07;;;13.00;99.90;;;;;;5040694;28;20014;-89
2021/05/14 07:10:23;;;;;;;13.05;7.22;;;12.50;99.90;;;;;;5041186;28;20128;-88
2021/05/14 07:12:49;;;;;;;15.27;7.47;;;;;;;;;;5040084;28;20400;-88
2021/05/14 07:15:15;;;;;;;13.98;7.63;;;11.30;99.90;;;;;;5040304;28;20083;-87
2021/05/14 07:17:41;;;;;;;13.55;7.18;;;11.20;99.90;;;;;;5037544;28;20037;-88
2021/05/14 07:20:07;;;;;;;13.32;6.78;;;14.00;99.90;;;;;;5031044;28;20064;-87
2021/05/14 07:22:35;;;;;;;9.82;5.82;;;11.90;99.90;;;;;;5017634;28;20025;-87
2021/05/14 07:25:00;;;;;;;13.27;6.10;;;12.10;99.90;;;;;;5019819;28;20421;-87
2021/05/14 07:27:26;;;;;;;11.45;6.13;;;12.40;99.90;;;;;;5037911;28;20085;-87
2021/05/14 07:29:52;;;;;;;8.90;5.70;;;12.50;99.90;;;;;;5037736;28;20033;-87
2021/05/14 07:32:19;;;;;;;9.60;5.38;;;12.80;99.90;;;;;;5021385;28;20018;-87
2021/05/14 07:34:45;;;;;;;10.43;5.57;;;12.90;99.90;;;;;;5023079;28;20441;-88
2021/05/14 07:37:11;;;;;;;6.22;4.15;;;12.90;99.90;;;;;;5044828;28;20032;-88
2021/05/14 07:39:37;;;;;;;8.43;5.05;;;12.70;99.90;;;;;;5042473;28;20016;-86
2021/05/14 07:42:04;;;;;;;8.00;5.00;;;12.90;99.90;;;;;;5040861;28;20044;-87
2021/05/14 07:44:44;;;;;;;8.93;5.32;;;12.90;99.90;;;;;;5044842;28;20032;-90
2021/05/14 07:47:14;;;;;;;8.75;5.00;;;13.10;99.90;;;;;;5042387;28;20077;-89
2021/05/14 07:49:40;;;;;;;8.82;4.53;;;13.20;99.90;;;;;;5060429;28;20396;-87
2021/05/14 07:52:05;;;;;;;9.68;4.97;;;12.70;99.90;;;;;;5041945;28;20025;-88
2021/05/14 07:54:31;;;;;;;9.52;5.13;;;13.00;99.90;;;;;;5036416;28;20036;-89
2021/05/14 07:56:57;;;;;;;12.23;4.60;;;13.10;99.90;;;;;;5021562;28;20079;-88
2021/05/14 07:59:22;;;;;;;9.32;4.05;;;11.60;99.90;;;;;;5022042;28;20021;-88
2021/05/14 08:01:48;;;;;;;7.25;3.67;;;16.10;99.90;;;;;;5022598;28;20486;-88
2021/05/14 08:04:14;;;;;;;11.15;4.38;;;16.60;99.90;;;;;;5021750;28;20080;-87
2021/05/14 08:06:40;;;;;;;9.77;4.57;;;12.70;99.90;;;;;;5026997;28;20025;-88
2021/05/14 08:09:07;;;;;;;7.10;4.20;;;13.10;99.90;;;;;;5033429;28;20103;-88
2021/05/14 08:11:33;;;;;;;8.60;4.57;;;13.30;99.90;;;;;;5019319;28;20029;-88
2021/05/14 08:13:58;;;;;;;7.57;3.90;;;13.40;99.90;;;;;;5019709;28;20024;-89
2021/05/14 08:16:24;;;;;;;8.18;3.60;;;13.40;99.90;;;;;;5018761;28;20036;-88
2021/05/14 08:18:51;;;;;;;6.80;4.03;;;13.50;99.90;;;;;;5035867;28;20036;-87
2021/05/14 08:21:18;;;;;;;6.57;4.18;;;13.40;99.90;;;;;;5014690;28;20022;-88
2021/05/14 08:23:43;;;;;;;6.43;3.78;;;15.40;99.90;;;;;;5050846;28;20119;-87
2021/05/14 08:26:10;;;;;;;7.03;4.10;;;13.50;99.90;;;;;;5018708;28;20495;-87
2021/05/14 08:28:36;;;;;;;6.00;3.78;;;13.60;99.90;;;;;;5019079;28;20100;-88
2021/05/14 08:31:02;;;;;;;6.78;3.88;;;13.60;99.90;;;;;;5036679;28;20099;-87
2021/05/14 08:33:28;;;;;;;8.20;4.10;;;13.50;99.90;;;;;;5055810;28;20114;-87
2021/05/14 08:35:53;;;;;;;9.70;4.53;;;13.50;99.90;;;;;;5038127;28;20115;-88
2021/05/14 08:38:19;;;;;;;7.10;3.40;;;13.40;99.90;;;;;;5038262;28;20032;-88
2021/05/14 08:40:45;;;;;;;7.97;4.20;;;13.50;99.90;;;;;;5038271;28;20390;-87
2021/05/14 08:43:11;;;;;;;9.43;4.70;;;13.10;99.90;;;;;;5038052;28;20021;-88
2021/05/14 08:45:38;;;;;;;7.45;4.22;;;15.60;99.90;;;;;;5056028;28;20013;-88
2021/05/14 08:48:11;;;;;;;8.48;4.90;;;16.20;99.90;;;;;;5037361;28;20120;-87
2021/05/14 08:50:38;;;;;;;11.15;5.40;;;13.10;99.90;;;;;;5038569;28;20029;-87
2021/05/14 08:53:03;;;;;;;9.85;5.55;;;13.00;99.90;;;;;;5056305;28;20496;-87
2021/05/14 08:55:29;;;;;;;10.80;5.07;;;12.90;99.90;;;;;;5038152;28;20025;-87
2021/05/14 08:57:55;;;;;;;12.90;5.97;;;12.70;99.90;;;;;;5038589;28;20025;-88
2021/05/14 09:00:21;;;;;;;10.50;5.40;;;14.50;99.90;;;;;;5057440;28;20013;-88
2021/05/14 09:02:47;;;;;;;10.15;5.30;;;12.80;99.90;;;;;;5033609;28;20021;-87
2021/05/14 09:05:33;;;;;;;13.18;6.15;;;12.70;99.90;;;;;;5018206;28;20018;-86
2021/05/14 09:08:00;;;;;;;10.30;5.03;;;12.80;99.90;;;;;;5036719;28;20021;-88
2021/05/14 09:10:29;;;;;;;9.35;4.88;;;12.80;99.90;;;;;;5036145;28;20025;-88
2021/05/14 09:12:55;;;;;;;10.93;5.53;;;12.70;99.90;;;;;;5035585;28;20452;-89
2021/05/14 09:15:28;;;;;;;12.15;5.45;;;12.90;99.90;;;;;;5018560;28;20513;-88
2021/05/14 09:18:03;;;;;;;11.77;6.03;;;12.80;99.90;;;;;;5018331;28;20095;-88
2021/05/14 09:20:37;;;;;;;11.40;5.43;;;12.90;99.90;;;;;;5029036;28;20056;-86
2021/05/14 09:23:26;;;;;;;10.90;6.05;;;12.90;99.90;;;;;;5040170;28;20025;-87
2021/05/14 09:26:01;;;;;;;14.15;6.78;;;13.20;99.90;;;;;;5049017;28;20021;-90
2021/05/14 09:28:36;;;;;;;11.93;6.38;;;12.90;99.90;;;;;;5059335;28;20474;-90
2021/05/14 09:31:21;;;;;;;14.60;7.65;;;14.50;99.90;;;;;;5038912;28;20031;-89
2021/05/14 09:33:49;;;;;;;16.55;7.75;;;12.90;99.90;;;;;;5040192;28;20056;-90
2021/05/14 09:36:34;;;;;;;14.43;6.68;;;13.00;99.90;;;;;;5038911;28;20093;-89
2021/05/14 09:39:08;;;;;;;14.25;6.00;;;13.00;99.90;;;;;;5037686;28;20085;-89
2021/05/14 09:41:35;;;;;;;12.07;6.35;;;13.00;99.90;;;;;;5037413;28;20510;-86
2021/05/14 09:44:03;;;;;;;16.38;8.18;;;13.20;99.90;;;;;;5035840;28;20076;-88
2021/05/14 09:46:44;;;;;;;17.55;7.82;;;13.40;99.90;;;;;;5017668;28;20028;-89
2021/05/14 09:49:19;;;;;;;16.98;7.38;;;13.80;99.90;;;;;;5017113;28;20021;-89
2021/05/14 09:51:53;;;;;;;13.25;7.03;;;14.20;99.90;;;;;;5017843;28;20386;-90
2021/05/14 09:54:24;;;;;;;11.52;5.47;;;14.60;99.90;;;;;;5025637;28;20061;-89
2021/05/14 09:59:54;;;;;;;12.95;6.20;;;15.10;99.90;;;;;;5054953;28;20484;-90
2021/05/14 10:02:33;;;;;;;12.82;5.70;;;15.10;99.90;;;;;;5036076;28;20064;-89
2021/05/14 10:05:01;;;;;;;9.85;5.57;;;15.30;99.90;;;;;;5055961;28;20390;-90
2021/05/14 10:07:28;;;;;;;12.77;5.80;;;18.20;99.90;;;;;;5056362;28;20105;-88
2021/05/14 10:09:58;;;;;;;12.55;5.75;;;15.50;99.90;;;;;;5021642;28;20083;-88
2021/05/14 10:12:25;;;;;;;13.90;5.40;;;17.90;99.90;;;;;;5035321;28;20064;-88
2021/05/14 10:14:51;;;;;;;11.00;5.22;;;15.60;99.90;;;;;;5017055;28;20025;-90
2021/05/14 10:17:18;;;;;;;11.57;5.18;;;15.80;99.90;;;;;;5016640;28;20394;-88
2021/05/14 10:19:45;;;;;;;12.93;6.25;;;16.00;99.90;;;;;;5018308;28;20026;-87
2021/05/14 10:22:12;;;;;;;14.45;6.55;;;19.10;99.90;;;;;;5017340;28;20029;-88
2021/05/14 10:24:45;;;;;;;11.23;5.78;;;17.10;99.90;;;;;;5046917;28;20087;-88
2021/05/14 10:27:17;;;;;;;11.70;6.15;;;16.20;97.80;;;;;;5048226;28;20175;-88
2021/05/14 10:29:45;;;;;;;10.90;5.03;;;16.10;98.10;;;;;;5062550;28;20098;-88
2021/05/14 10:32:12;;;;;;;17.52;6.93;;;18.50;99.90;;;;;;5024100;28;20025;-88
2021/05/14 10:34:38;;;;;;;12.65;6.43;;;16.10;99.90;;;;;;5017382;28;20397;-88
2021/05/14 10:37:03;;;;;;;13.88;6.90;;;17.20;99.90;;;;;;5050038;28;20025;-88
2021/05/14 10:39:33;;;;;;;11.65;5.93;;;18.50;99.90;;;;;;5037111;28;20025;-88
2021/05/14 10:42:05;;;;;;;13.95;6.05;;;18.60;99.40;;;;;;5047587;28;20032;-87
2021/05/14 10:44:40;;;;;;;10.10;5.53;;;16.30;99.80;;;;;;5022393;28;20032;-87
2021/05/14 10:47:24;;;;;;;10.45;5.35;;;16.50;97.20;;;;;;5037198;28;20075;-87
2021/05/14 10:50:03;;;;;;;14.50;6.25;;;16.50;96.70;;;;;;5016621;28;20612;-87
2021/05/14 10:52:31;;;;;;;9.07;4.90;;;16.60;93.10;;;;;;5016466;28;20079;-87
2021/05/14 10:54:57;;;;;;;14.90;5.10;;;17.00;96.90;;;;;;5016965;28;20079;-87
2021/05/14 10:57:41;;;;;;;8.15;4.78;;;17.20;96.90;;;;;;5018219;28;20029;-87
2021/05/14 11:00:29;;;;;;;9.75;5.20;;;17.60;98.20;;;;;;5039120;28;20033;-87
2021/05/14 11:03:10;;;;;;;11.07;5.20;;;17.90;96.20;;;;;;5020216;28;20080;-86
2021/05/14 11:05:38;;;;;;;9.68;5.35;;;18.00;85.30;;;;;;5002491;28;20037;-86
2021/05/14 11:08:04;;;;;;;9.50;4.90;;;17.90;88.90;;;;;;5020415;28;20026;-87
2021/05/14 11:10:32;;;;;;;10.00;4.30;;;17.60;86.90;;;;;;5018768;28;20037;-86
2021/05/14 11:12:58;;;;;;;9.85;3.78;;;17.50;81.10;;;;;;5008482;28;20027;-87
2021/05/14 11:15:33;;;;;;;11.57;4.15;;;17.40;91.60;;;;;;5040925;28;20032;-87
2021/05/14 11:18:13;;;;;;;10.18;4.32;;;17.90;89.70;;;;;;5058036;28;20032;-87
2021/05/14 11:20:44;;;;;;;7.10;4.10;;;18.00;91.10;;;;;;5040587;28;20055;-87
2021/05/14 11:23:38;;;;;;;7.72;3.72;;;18.20;82.90;;;;;;5041583;28;20016;-86
2021/05/14 11:26:06;;;;;;;8.10;3.28;;;18.00;79.90;;;;;;5040915;28;20044;-87
2021/05/14 11:28:46;;;;;;;7.40;3.95;;;18.00;84.50;;;;;;5038315;28;20025;-86
2021/05/14 11:31:23;;;;;;;12.52;4.32;;;18.10;84.80;;;;;;5042442;28;20559;-86
2021/05/14 11:33:54;;;;;;;7.43;3.92;;;18.20;88.20;;;;;;5058513;28;20072;-87
2021/05/14 11:36:21;;;;;;;9.13;4.10;;;18.30;83.00;;;;;;5057816;28;20025;-87
2021/05/14 11:38:48;;;;;;;7.82;3.35;;;18.50;84.70;;;;;;5040373;28;20017;-87
2021/05/14 11:41:24;;;;;;;6.32;2.60;;;18.60;85.90;;;;;;5032908;28;20030;-87
2021/05/14 11:44:02;;;;;;;5.45;3.33;;;18.80;85.30;;;;;;5017409;28;20101;-87
2021/05/14 11:46:33;;;;;;;8.23;3.80;;;18.90;81.10;;;;;;5017781;28;20479;-87
2021/05/14 11:49:09;;;;;;;8.73;2.97;;;19.10;86.30;;;;;;5000715;28;20391;-87
2021/05/14 11:51:39;;;;;;;9.32;3.53;;;20.70;81.80;;;;;;5001214;28;20434;-87
2021/05/14 11:54:27;;;;;;;7.10;3.33;;;22.00;82.30;;;;;;5001432;28;20037;-86
2021/05/14 11:56:52;;;;;;;9.43;3.70;;;21.90;79.70;;;;;;5016697;28;20552;-87
2021/05/14 11:59:22;;;;;;;9.32;2.97;;;21.70;79.50;;;;;;5038887;28;20037;-87
2021/05/14 12:01:48;;;;;;;5.43;2.28;;;20.20;77.10;;;;;;5023343;28;20032;-85
2021/05/14 12:04:14;;;;;;;5.88;2.35;;;20.30;73.20;;;;;;5020078;28;20107;-87
2021/05/14 12:06:47;;;;;;;5.22;2.65;;;20.40;68.40;;;;;;5020535;28;20482;-87
2021/05/14 12:09:13;;;;;;;6.97;2.78;;;21.00;70.00;;;;;;5047182;28;20447;-86
2021/05/14 12:11:40;;;;;;;6.85;2.92;;;21.40;72.30;;;;;;5041152;28;20017;-88
2021/05/14 12:14:07;;;;;;;4.22;1.65;;;21.30;65.90;;;;;;5033091;28;20514;-87
2021/05/14 12:16:36;;;;;;;4.95;2.33;;;22.00;60.20;;;;;;5038306;28;20032;-86
2021/05/14 12:19:04;;;;;;;;;;;20.90;71.00;;;;;;5021396;28;20537;-87
2021/05/14 12:21:34;;;;;;;4.27;1.93;;;20.90;66.40;;;;;;5020202;28;19959;-87
2021/05/14 12:24:16;;;;;;;3.72;1.80;;;20.90;69.10;;;;;;5020839;28;20264;-87
2021/05/14 12:26:42;;;;;;;5.40;1.90;;;21.00;67.30;;;;;;5021494;28;20030;-87
2021/05/14 12:29:26;;;;;;;3.55;1.40;;;21.10;64.30;;;;;;5020513;28;20033;-87
2021/05/14 12:31:56;;;;;;;5.97;2.20;;;21.20;68.70;;;;;;5038597;28;20211;-87
2021/05/14 12:34:23;;;;;;;5.13;2.38;;;23.30;65.30;;;;;;5039338;28;20023;-86
2021/05/14 12:36:56;;;;;;;4.45;1.90;;;23.30;66.00;;;;;;5019306;28;20029;-87
2021/05/14 12:39:24;;;;;;;4.85;1.88;;;21.20;60.20;;;;;;5022151;28;20021;-88
2021/05/14 12:41:56;;;;;;;4.57;1.85;;;21.20;62.10;;;;;;5037188;28;20493;-88
2021/05/14 12:44:25;;;;;;;4.25;1.80;;;21.10;63.90;;;;;;5036944;28;20038;-88
2021/05/14 12:47:12;;;;;;;4.47;1.50;;;22.60;65.90;;;;;;5018243;28;20020;-88
2021/05/14 12:49:46;;;;;;;5.57;1.42;;;21.20;64.40;;;;;;5037402;28;20029;-89
2021/05/14 12:52:26;;;;;;;4.30;0.95;;;21.30;60.70;;;;;;5037632;28;20478;-90